createdAt,value
2017-06-03T00:00:10.784Z,0
2017-06-03T00:01:24.704Z,0
2017-06-03T00:02:39.017Z,0
2017-06-03T00:03:53.358Z,0
2017-06-03T00:05:07.675Z,0
2017-06-03T00:06:22.430Z,0
2017-06-03T00:07:36.796Z,0
2017-06-03T00:08:50.776Z,0
2017-06-03T00:10:06.604Z,0
2017-06-03T00:11:20.945Z,0
2017-06-03T00:12:35.644Z,0
2017-06-03T00:13:50.099Z,0
2017-06-03T00:15:04.471Z,0
2017-06-03T00:16:18.697Z,0
2017-06-03T00:17:32.866Z,0
2017-06-03T00:18:46.928Z,0
2017-06-03T00:20:01.609Z,0
2017-06-03T00:21:15.903Z,0
2017-06-03T00:22:30.532Z,0
2017-06-03T00:23:44.797Z,0
2017-06-03T00:24:59.044Z,0
2017-06-03T00:26:13.307Z,0
2017-06-03T00:27:27.269Z,0
2017-06-03T00:28:42.546Z,0
2017-06-03T00:29:56.837Z,0
2017-06-03T00:31:11.383Z,0
2017-06-03T00:32:25.690Z,0
2017-06-03T00:33:40.079Z,0
2017-06-03T00:34:54.311Z,0
2017-06-03T00:36:08.211Z,0
2017-06-03T00:37:23.270Z,0
2017-06-03T00:38:37.591Z,0
2017-06-03T00:39:52.056Z,0
2017-06-03T00:41:06.262Z,0
2017-06-03T00:42:20.569Z,0
2017-06-03T00:43:35.172Z,0
2017-06-03T00:44:49.580Z,0
2017-06-03T00:46:03.873Z,0
2017-06-03T00:47:18.594Z,0
2017-06-03T00:48:32.573Z,0
2017-06-03T00:49:46.637Z,0
2017-06-03T00:51:00.658Z,0
2017-06-03T00:52:15.284Z,0
2017-06-03T00:53:30.600Z,0
2017-06-03T00:54:44.954Z,0
2017-06-03T00:56:00.158Z,0
2017-06-03T00:57:14.875Z,0
2017-06-03T00:58:29.668Z,0
2017-06-03T00:59:44.289Z,0
2017-06-03T01:00:58.997Z,0
2017-06-03T01:02:13.604Z,0
2017-06-03T01:03:28.496Z,0
2017-06-03T01:04:43.679Z,0
2017-06-03T01:05:58.980Z,0
2017-06-03T01:07:13.110Z,0
2017-06-03T01:08:27.114Z,0
2017-06-03T01:09:41.099Z,0
2017-06-03T01:10:55.814Z,0
2017-06-03T01:12:10.423Z,0
2017-06-03T01:13:24.712Z,0
2017-06-03T01:14:39.153Z,0
2017-06-03T01:15:53.752Z,0
2017-06-03T01:17:08.042Z,0
2017-06-03T01:18:23.307Z,0
2017-06-03T01:19:37.587Z,0
2017-06-03T01:20:52.601Z,0
2017-06-03T01:22:06.525Z,0
2017-06-03T01:23:21.268Z,0
2017-06-03T01:24:36.688Z,0
2017-06-03T01:25:50.682Z,0
2017-06-03T01:27:05.044Z,0
2017-06-03T01:28:19.763Z,0
2017-06-03T01:29:33.753Z,0
2017-06-03T01:30:48.329Z,0
2017-06-03T01:32:02.683Z,0
2017-06-03T01:33:16.595Z,0
2017-06-03T01:34:30.885Z,0
2017-06-03T01:35:44.929Z,0
2017-06-03T01:36:59.841Z,0
2017-06-03T01:38:14.052Z,0
2017-06-03T01:39:29.958Z,0
2017-06-03T01:40:44.801Z,0
2017-06-03T01:42:00.236Z,0
2017-06-03T01:43:14.772Z,0
2017-06-03T01:44:28.748Z,0
2017-06-03T01:45:43.199Z,0
2017-06-03T01:46:57.565Z,0
2017-06-03T01:48:11.799Z,0
2017-06-03T01:49:26.368Z,0
2017-06-03T01:50:40.270Z,0
2017-06-03T01:51:54.536Z,0
2017-06-03T01:53:08.791Z,0
2017-06-03T01:54:22.762Z,0
2017-06-03T01:55:36.680Z,0
2017-06-03T01:56:50.605Z,0
2017-06-03T01:58:04.952Z,0
2017-06-03T01:59:19.320Z,0
2017-06-03T02:00:34.271Z,0
2017-06-03T02:01:49.008Z,0
2017-06-03T02:03:03.588Z,0
2017-06-03T02:04:17.918Z,0
2017-06-03T02:05:32.208Z,0
2017-06-03T02:06:46.209Z,0
2017-06-03T02:08:00.594Z,0
2017-06-03T02:09:15.656Z,0
2017-06-03T02:10:30.258Z,0
2017-06-03T02:11:45.187Z,0
2017-06-03T02:12:59.434Z,0
2017-06-03T02:14:13.957Z,0
2017-06-03T02:15:28.227Z,0
2017-06-03T02:16:42.143Z,0
2017-06-03T02:17:56.009Z,0
2017-06-03T02:19:09.927Z,0
2017-06-03T02:20:24.150Z,0
2017-06-03T02:21:38.020Z,0
2017-06-03T02:22:51.948Z,0
2017-06-03T02:24:05.806Z,0
2017-06-03T02:25:19.714Z,0
2017-06-03T02:26:34.019Z,0
2017-06-03T02:27:48.589Z,0
2017-06-03T02:29:02.469Z,0
2017-06-03T02:30:16.330Z,0
2017-06-03T02:31:30.287Z,0
2017-06-03T02:32:44.471Z,0
2017-06-03T02:33:58.910Z,0
2017-06-03T02:35:12.846Z,0
2017-06-03T02:36:26.810Z,0
2017-06-03T02:37:40.696Z,0
2017-06-03T02:38:54.893Z,0
2017-06-03T02:40:08.833Z,0
2017-06-03T02:41:22.771Z,0
2017-06-03T02:42:37.767Z,0
2017-06-03T02:43:51.660Z,0
2017-06-03T02:45:06.535Z,0
2017-06-03T02:46:20.476Z,0
2017-06-03T02:47:34.345Z,0
2017-06-03T02:48:51.316Z,0
2017-06-03T02:50:05.207Z,0
2017-06-03T02:51:19.538Z,0
2017-06-03T02:52:33.425Z,0
2017-06-03T02:53:47.304Z,0
2017-06-03T02:55:01.868Z,0
2017-06-03T02:56:15.756Z,0
2017-06-03T02:57:29.990Z,0
2017-06-03T02:58:43.875Z,0
2017-06-03T02:59:57.985Z,0
2017-06-03T03:01:12.697Z,0
2017-06-03T03:02:26.591Z,0
2017-06-03T03:03:41.804Z,0
2017-06-03T03:04:55.685Z,0
2017-06-03T03:06:09.564Z,0
2017-06-03T03:07:23.830Z,0
2017-06-03T03:08:37.768Z,0
2017-06-03T03:09:51.741Z,0
2017-06-03T03:11:05.613Z,0
2017-06-03T03:12:19.826Z,0
2017-06-03T03:13:34.068Z,0
2017-06-03T03:14:47.960Z,0
2017-06-03T03:16:02.118Z,0
2017-06-03T03:17:16.369Z,0
2017-06-03T03:18:30.279Z,0
2017-06-03T03:19:44.572Z,0
2017-06-03T03:20:58.451Z,5
2017-06-03T03:22:12.614Z,5
2017-06-03T03:23:26.487Z,5
2017-06-03T03:24:40.832Z,5
2017-06-03T03:25:54.714Z,5
2017-06-03T03:27:08.608Z,5
2017-06-03T03:28:22.804Z,5
2017-06-03T03:29:37.107Z,10
2017-06-03T03:30:50.983Z,10
2017-06-03T03:32:04.914Z,10
2017-06-03T03:33:18.854Z,15
2017-06-03T03:34:33.080Z,15
2017-06-03T03:35:47.330Z,15
2017-06-03T03:37:01.232Z,20
2017-06-03T03:38:15.118Z,20
2017-06-03T03:39:29.128Z,20
2017-06-03T03:40:44.058Z,20
2017-06-03T03:41:57.971Z,25
2017-06-03T03:43:12.608Z,25
2017-06-03T03:44:27.227Z,25
2017-06-03T03:45:41.612Z,25
2017-06-03T03:46:56.162Z,25
2017-06-03T03:48:10.145Z,25
2017-06-03T03:49:24.432Z,25
2017-06-03T03:50:38.749Z,25
2017-06-03T03:51:53.322Z,25
2017-06-03T03:53:08.217Z,25
2017-06-03T03:54:22.624Z,30
2017-06-03T03:55:36.574Z,30
2017-06-03T03:56:50.470Z,30
2017-06-03T03:58:04.699Z,25
2017-06-03T03:59:18.874Z,25
2017-06-03T04:00:32.928Z,30
2017-06-03T04:01:46.853Z,30
2017-06-03T04:03:00.759Z,30
2017-06-03T04:04:14.626Z,25
2017-06-03T04:05:29.131Z,25
2017-06-03T04:06:43.259Z,30
2017-06-03T04:07:57.445Z,25
2017-06-03T04:09:11.353Z,25
2017-06-03T04:10:25.236Z,25
2017-06-03T04:11:39.471Z,30
2017-06-03T04:12:53.450Z,30
2017-06-03T04:14:07.361Z,30
2017-06-03T04:15:21.248Z,30
2017-06-03T04:16:35.214Z,30
2017-06-03T04:17:49.851Z,30
2017-06-03T04:19:03.813Z,30
2017-06-03T04:20:17.747Z,35
2017-06-03T04:21:32.029Z,35
2017-06-03T04:22:45.925Z,35
2017-06-03T04:24:00.191Z,40
2017-06-03T04:25:14.128Z,40
2017-06-03T04:26:28.009Z,45
2017-06-03T04:27:41.978Z,50
2017-06-03T04:28:55.896Z,55
2017-06-03T04:30:09.877Z,55
2017-06-03T04:31:24.176Z,60
2017-06-03T04:32:38.448Z,60
2017-06-03T04:33:52.682Z,60
2017-06-03T04:35:06.562Z,60
2017-06-03T04:36:21.066Z,60
2017-06-03T04:37:35.045Z,60
2017-06-03T04:38:48.925Z,65
2017-06-03T04:40:02.926Z,65
2017-06-03T04:41:16.840Z,70
2017-06-03T04:42:30.744Z,70
2017-06-03T04:43:44.696Z,75
2017-06-03T04:44:58.604Z,80
2017-06-03T04:46:12.661Z,85
2017-06-03T04:47:26.645Z,90
2017-06-03T04:48:40.531Z,95
2017-06-03T04:49:54.474Z,100
2017-06-03T04:51:08.361Z,105
2017-06-03T04:52:22.874Z,110
2017-06-03T04:53:36.758Z,110
2017-06-03T04:54:51.336Z,115
2017-06-03T04:56:05.225Z,115
2017-06-03T04:57:19.148Z,120
2017-06-03T04:58:33.182Z,120
2017-06-03T04:59:47.112Z,120
2017-06-03T05:01:02.544Z,115
2017-06-03T05:02:16.469Z,105
2017-06-03T05:03:30.364Z,100
2017-06-03T05:04:44.247Z,95
2017-06-03T05:05:58.243Z,90
2017-06-03T05:07:12.501Z,90
2017-06-03T05:08:26.396Z,95
2017-06-03T05:09:40.295Z,95
2017-06-03T05:10:54.612Z,95
2017-06-03T05:12:08.615Z,100
2017-06-03T05:13:22.810Z,105
2017-06-03T05:14:36.788Z,110
2017-06-03T05:15:50.771Z,120
2017-06-03T05:17:05.128Z,150
2017-06-03T05:18:19.104Z,130
2017-06-03T05:19:33.457Z,125
2017-06-03T05:20:47.401Z,130
2017-06-03T05:22:01.665Z,130
2017-06-03T05:23:15.887Z,130
2017-06-03T05:24:29.767Z,135
2017-06-03T05:25:43.959Z,140
2017-06-03T05:26:58.350Z,145
2017-06-03T05:28:12.372Z,145
2017-06-03T05:29:26.259Z,145
2017-06-03T05:30:40.175Z,150
2017-06-03T05:31:54.412Z,150
2017-06-03T05:33:08.319Z,155
2017-06-03T05:34:22.362Z,165
2017-06-03T05:35:36.578Z,170
2017-06-03T05:36:50.715Z,190
2017-06-03T05:38:05.117Z,205
2017-06-03T05:39:19.450Z,205
2017-06-03T05:40:33.490Z,230
2017-06-03T05:41:47.793Z,245
2017-06-03T05:43:01.692Z,245
2017-06-03T05:44:15.886Z,250
2017-06-03T05:45:30.102Z,275
2017-06-03T05:46:44.044Z,275
2017-06-03T05:47:57.980Z,285
2017-06-03T05:49:12.063Z,290
2017-06-03T05:50:25.985Z,295
2017-06-03T05:51:39.921Z,300
2017-06-03T05:52:53.866Z,295
2017-06-03T05:54:07.753Z,285
2017-06-03T05:55:21.747Z,270
2017-06-03T05:56:35.992Z,265
2017-06-03T05:57:50.001Z,255
2017-06-03T05:59:03.915Z,255
2017-06-03T06:00:17.864Z,255
2017-06-03T06:01:31.773Z,270
2017-06-03T06:02:45.747Z,260
2017-06-03T06:03:59.648Z,270
2017-06-03T06:05:13.540Z,265
2017-06-03T06:06:27.849Z,255
2017-06-03T06:07:41.769Z,250
2017-06-03T06:08:56.424Z,260
2017-06-03T06:10:10.355Z,285
2017-06-03T06:11:24.613Z,295
2017-06-03T06:12:38.492Z,300
2017-06-03T06:13:52.379Z,305
2017-06-03T06:15:06.571Z,325
2017-06-03T06:16:20.630Z,340
2017-06-03T06:17:34.909Z,355
2017-06-03T06:18:48.789Z,365
2017-06-03T06:20:02.695Z,330
2017-06-03T06:21:17.639Z,320
2017-06-03T06:22:32.013Z,320
2017-06-03T06:23:46.247Z,325
2017-06-03T06:25:00.172Z,325
2017-06-03T06:26:14.095Z,320
2017-06-03T06:27:28.599Z,310
2017-06-03T06:28:42.996Z,295
2017-06-03T06:29:56.868Z,280
2017-06-03T06:31:11.085Z,270
2017-06-03T06:32:26.289Z,270
2017-06-03T06:33:40.821Z,270
2017-06-03T06:34:54.838Z,270
2017-06-03T06:36:08.710Z,270
2017-06-03T06:37:22.617Z,270
2017-06-03T06:38:36.935Z,270
2017-06-03T06:39:51.146Z,280
2017-06-03T06:41:05.305Z,285
2017-06-03T06:42:19.202Z,285
2017-06-03T06:43:33.077Z,300
2017-06-03T06:44:47.000Z,320
2017-06-03T06:46:01.200Z,335
2017-06-03T06:47:15.501Z,355
2017-06-03T06:48:29.728Z,360
2017-06-03T06:49:43.646Z,355
2017-06-03T06:50:57.560Z,355
2017-06-03T06:52:11.808Z,350
2017-06-03T06:53:25.691Z,345
2017-06-03T06:54:39.579Z,340
2017-06-03T06:55:53.859Z,345
2017-06-03T06:57:07.805Z,350
2017-06-03T06:58:22.054Z,350
2017-06-03T06:59:35.988Z,355
2017-06-03T07:00:50.346Z,365
2017-06-03T07:02:04.436Z,375
2017-06-03T07:03:19.079Z,370
2017-06-03T07:04:34.031Z,365
2017-06-03T07:05:47.949Z,350
2017-06-03T07:07:01.850Z,335
2017-06-03T07:08:15.973Z,325
2017-06-03T07:09:29.880Z,325
2017-06-03T07:10:45.508Z,325
2017-06-03T07:11:59.481Z,325
2017-06-03T07:13:13.412Z,325
2017-06-03T07:14:27.451Z,320
2017-06-03T07:15:41.704Z,315
2017-06-03T07:16:55.965Z,315
2017-06-03T07:18:09.943Z,325
2017-06-03T07:19:24.189Z,325
2017-06-03T07:20:38.803Z,320
2017-06-03T07:21:53.027Z,320
2017-06-03T07:23:07.676Z,325
2017-06-03T07:24:21.584Z,335
2017-06-03T07:25:36.087Z,345
2017-06-03T07:26:49.997Z,350
2017-06-03T07:28:04.245Z,350
2017-06-03T07:29:18.493Z,345
2017-06-03T07:30:32.838Z,350
2017-06-03T07:31:49.885Z,345
2017-06-03T07:33:03.817Z,340
2017-06-03T07:34:18.353Z,330
2017-06-03T07:35:32.960Z,315
2017-06-03T07:36:46.881Z,315
2017-06-03T07:38:00.773Z,310
2017-06-03T07:39:14.725Z,310
2017-06-03T07:40:28.650Z,310
2017-06-03T07:41:43.553Z,300
2017-06-03T07:42:57.520Z,295
2017-06-03T07:44:12.459Z,295
2017-06-03T07:45:26.451Z,295
2017-06-03T07:46:40.764Z,300
2017-06-03T07:47:55.102Z,300
2017-06-03T07:49:09.828Z,295
2017-06-03T07:50:24.163Z,295
2017-06-03T07:51:38.060Z,300
2017-06-03T07:52:51.998Z,300
2017-06-03T07:54:06.550Z,300
2017-06-03T07:55:21.278Z,295
2017-06-03T07:56:35.648Z,305
2017-06-03T07:57:49.993Z,300
2017-06-03T07:59:03.914Z,300
2017-06-03T08:00:18.178Z,295
2017-06-03T08:01:32.723Z,290
2017-06-03T08:02:46.626Z,275
2017-06-03T08:04:00.636Z,260
2017-06-03T08:05:14.550Z,250
2017-06-03T08:06:29.110Z,245
2017-06-03T08:07:43.357Z,240
2017-06-03T08:08:57.585Z,240
2017-06-03T08:10:11.458Z,240
2017-06-03T08:11:25.376Z,245
2017-06-03T08:12:39.327Z,250
2017-06-03T08:13:53.213Z,240
2017-06-03T08:15:07.101Z,230
2017-06-03T08:16:21.508Z,215
2017-06-03T08:17:35.712Z,215
2017-06-03T08:18:50.065Z,230
2017-06-03T08:20:04.422Z,250
2017-06-03T08:21:19.682Z,260
2017-06-03T08:22:33.627Z,275
2017-06-03T08:23:49.063Z,290
2017-06-03T08:25:04.436Z,320
2017-06-03T08:26:19.705Z,350
2017-06-03T08:27:35.133Z,340
2017-06-03T08:28:50.452Z,335
2017-06-03T08:30:05.156Z,325
2017-06-03T08:31:20.118Z,310
2017-06-03T08:32:35.176Z,310
2017-06-03T08:33:51.892Z,300
2017-06-03T08:35:05.816Z,300
2017-06-03T08:36:20.558Z,305
2017-06-03T08:37:35.151Z,305
2017-06-03T08:38:49.067Z,320
2017-06-03T08:40:03.328Z,335
2017-06-03T08:41:17.740Z,330
2017-06-03T08:42:32.790Z,340
2017-06-03T08:43:46.990Z,355
2017-06-03T08:45:01.752Z,345
2017-06-03T08:46:16.549Z,345
2017-06-03T08:47:32.386Z,355
2017-06-03T08:48:47.084Z,350
2017-06-03T08:50:01.318Z,325
2017-06-03T08:51:15.985Z,325
2017-06-03T08:52:31.107Z,310
2017-06-03T08:53:45.787Z,300
2017-06-03T08:55:00.777Z,295
2017-06-03T08:56:16.123Z,290
2017-06-03T08:57:31.798Z,280
2017-06-03T08:58:46.845Z,280
2017-06-03T09:00:02.075Z,290
2017-06-03T09:01:16.681Z,300
2017-06-03T09:02:31.982Z,320
2017-06-03T09:03:46.599Z,335
2017-06-03T09:05:01.453Z,325
2017-06-03T09:06:15.867Z,320
2017-06-03T09:07:30.092Z,305
2017-06-03T09:09:10.069Z,305
2017-06-03T09:10:24.908Z,300
2017-06-03T09:11:40.443Z,285
2017-06-03T09:12:54.930Z,280
2017-06-03T09:14:09.268Z,270
2017-06-03T09:15:24.005Z,265
2017-06-03T09:16:38.747Z,270
2017-06-03T09:17:53.601Z,255
2017-06-03T09:19:07.941Z,255
2017-06-03T09:20:22.892Z,260
2017-06-03T09:21:37.136Z,270
2017-06-03T09:22:51.012Z,275
2017-06-03T09:24:05.640Z,275
2017-06-03T09:25:19.879Z,285
2017-06-03T09:26:33.813Z,285
2017-06-03T09:27:48.525Z,270
2017-06-03T09:29:02.843Z,265
2017-06-03T09:30:17.101Z,250
2017-06-03T09:31:31.705Z,245
2017-06-03T09:32:45.910Z,250
2017-06-03T09:34:00.427Z,250
2017-06-03T09:35:14.324Z,245
2017-06-03T09:36:28.579Z,265
2017-06-03T09:37:43.258Z,265
2017-06-03T09:38:57.496Z,260
2017-06-03T09:40:11.841Z,260
2017-06-03T09:41:25.767Z,255
2017-06-03T09:42:39.704Z,250
2017-06-03T09:43:53.649Z,240
2017-06-03T09:45:07.889Z,230
2017-06-03T09:46:21.817Z,225
2017-06-03T09:47:35.750Z,215
2017-06-03T09:48:50.092Z,210
2017-06-03T09:50:04.629Z,215
2017-06-03T09:51:19.699Z,230
2017-06-03T09:52:34.046Z,225
2017-06-03T09:53:47.991Z,210
2017-06-03T09:55:02.206Z,210
2017-06-03T09:56:16.980Z,210
2017-06-03T09:57:31.218Z,210
2017-06-03T09:58:45.136Z,215
2017-06-03T09:59:59.841Z,215
2017-06-03T10:01:14.548Z,210
2017-06-03T10:02:28.482Z,205
2017-06-03T10:03:42.432Z,200
2017-06-03T10:04:56.780Z,220
2017-06-03T10:06:10.698Z,215
2017-06-03T10:07:24.769Z,205
2017-06-03T10:08:38.703Z,215
2017-06-03T10:09:53.040Z,225
2017-06-03T10:11:08.004Z,230
2017-06-03T10:12:21.970Z,235
2017-06-03T10:13:36.799Z,225
2017-06-03T10:14:50.739Z,205
2017-06-03T10:16:04.991Z,205
2017-06-03T10:17:18.906Z,205
2017-06-03T10:18:32.826Z,205
2017-06-03T10:19:46.790Z,205
2017-06-03T10:21:01.074Z,205
2017-06-03T10:22:16.384Z,200
2017-06-03T10:23:30.267Z,200
2017-06-03T10:24:44.614Z,200
2017-06-03T10:25:58.551Z,200
2017-06-03T10:27:12.934Z,200
2017-06-03T10:28:27.722Z,200
2017-06-03T10:29:41.674Z,200
2017-06-03T10:30:55.605Z,200
2017-06-03T10:32:10.248Z,200
2017-06-03T10:33:24.183Z,205
2017-06-03T10:34:38.740Z,205
2017-06-03T10:35:53.013Z,205
2017-06-03T10:37:07.580Z,205
2017-06-03T10:38:21.521Z,205
2017-06-03T10:39:35.438Z,200
2017-06-03T10:40:50.013Z,200
2017-06-03T10:42:04.745Z,200
2017-06-03T10:43:19.080Z,205
2017-06-03T10:44:32.999Z,185
2017-06-03T10:45:47.683Z,200
2017-06-03T10:47:02.740Z,205
2017-06-03T10:48:16.620Z,205
2017-06-03T10:49:31.557Z,200
2017-06-03T10:50:46.028Z,200
2017-06-03T10:52:00.000Z,200
2017-06-03T10:53:14.262Z,200
2017-06-03T10:54:28.572Z,190
2017-06-03T10:55:42.940Z,190
2017-06-03T10:56:57.542Z,185
2017-06-03T10:58:11.548Z,180
2017-06-03T10:59:26.170Z,190
2017-06-03T11:00:40.435Z,235
2017-06-03T11:01:54.718Z,235
2017-06-03T11:03:08.655Z,215
2017-06-03T11:04:22.559Z,210
2017-06-03T11:05:36.781Z,200
2017-06-03T11:06:51.126Z,205
2017-06-03T11:08:05.432Z,215
2017-06-03T11:09:19.353Z,210
2017-06-03T11:10:33.715Z,215
2017-06-03T11:11:47.922Z,200
2017-06-03T11:13:01.825Z,155
2017-06-03T11:14:16.200Z,140
2017-06-03T11:15:30.466Z,135
2017-06-03T11:16:44.392Z,140
2017-06-03T11:17:58.944Z,145
2017-06-03T22:51:28.581Z,0
2017-06-03T22:52:42.674Z,0
2017-06-03T22:53:56.850Z,0
2017-06-03T22:55:11.285Z,0
2017-06-03T22:56:25.314Z,0
2017-06-03T22:57:40.058Z,0
2017-06-03T22:58:54.508Z,0
2017-06-03T23:00:08.851Z,0
2017-06-03T23:01:23.044Z,0
2017-06-03T23:02:37.132Z,0
2017-06-03T23:03:53.025Z,0
2017-06-03T23:05:07.419Z,0
2017-06-03T23:06:21.547Z,0
2017-06-03T23:07:35.996Z,0
2017-06-03T23:08:50.199Z,0
2017-06-03T23:10:04.558Z,0
2017-06-03T23:11:18.625Z,0
2017-06-03T23:12:34.653Z,0
2017-06-03T23:13:49.537Z,0
2017-06-03T23:15:03.759Z,0
2017-06-03T23:16:18.760Z,0
2017-06-03T23:17:33.734Z,0
2017-06-03T23:18:52.528Z,0
2017-06-03T23:20:08.340Z,0
2017-06-03T23:21:23.171Z,0
2017-06-03T23:22:38.649Z,0
2017-06-03T23:23:52.805Z,0
2017-06-03T23:25:09.050Z,0
2017-06-03T23:26:23.645Z,0
2017-06-03T23:27:38.468Z,0
2017-06-03T23:28:52.918Z,0
2017-06-03T23:30:07.906Z,0
2017-06-03T23:31:49.606Z,0
2017-06-03T23:37:56.225Z,0
2017-06-03T23:39:11.837Z,0
2017-06-03T23:40:28.066Z,0
2017-06-03T23:41:42.604Z,0
2017-06-03T23:42:56.714Z,0
2017-06-03T23:44:11.902Z,0
2017-06-03T23:45:27.754Z,0
2017-06-03T23:46:43.330Z,0
2017-06-03T23:47:58.108Z,0
2017-06-03T23:49:12.810Z,0
2017-06-03T23:50:26.873Z,0
2017-06-03T23:51:41.100Z,0
2017-06-03T23:52:55.554Z,0
2017-06-03T23:54:11.324Z,0
2017-06-03T23:55:27.090Z,0
2017-06-03T23:56:41.740Z,0
2017-06-03T23:57:55.703Z,0
2017-06-03T23:59:10.587Z,0
